Home > Products > Valid Products > TAF

000
FTUS43 KSGF 310500
TAFJLN
TAF
KJLN 310520Z 3106/0106 33009KT P6SM SKC WS010/01035KT
     FM311000 35012KT P6SM BKN030 WS019/35035KT
     FM311400 36015G22KT P6SM BKN035
     FM311900 01014G24KT P6SM SCT040
     FM312300 01006KT P6SM SKC=



000
FTUS43 KSGF 310500
TAFSGF
TAF
KSGF 310520Z 3106/0106 33010KT P6SM SKC WS020/35035KT
     FM311000 34012KT P6SM BKN025 WS019/35035KT
     FM311400 35015G25KT P6SM BKN030
     FM311900 36014G24KT P6SM SCT035
     FM312300 36007KT P6SM SKC=



000
FTUS43 KSGF 302300
TAFJLN
TAF
KJLN 302321Z 3100/3124 31010KT P6SM SKC WS010/01035KT
     FM311000 35010KT P6SM BKN030 WS019/35035KT
     FM311400 36015G22KT P6SM BKN035
     FM311900 01014G24KT P6SM SCT040=



000
FTUS43 KSGF 302300
TAFSGF
TAF
KSGF 302321Z 3100/3124 33010KT P6SM SKC WS020/35035KT
     FM311000 34010KT P6SM BKN025 WS019/35035KT
     FM311400 35015G25KT P6SM BKN030
     FM311900 36014G24KT P6SM SCT035=



000
FTUS43 KSGF 301900 AAA
TAFJLN
TAF AMD
KJLN 301923Z 3019/3118 29012G22KT P6SM SCT200
     FM302330 31010KT P6SM SKC WS010/01035KT
     FM311000 35010KT P6SM SCT040 WS019/35035KT
     FM311400 01015G22KT P6SM SCT050=



000
FTUS43 KSGF 301900 AAA
TAFSGF
TAF AMD
KSGF 301922Z 3019/3118 26015G23KT P6SM SCT200
     FM302300 33010KT P6SM SKC WS019/35035KT
     FM311000 34010KT P6SM BKN035 WS019/35035KT
     FM311400 35015G25KT P6SM BKN040 OVC250=



000
FTUS43 KSGF 301700
TAFSGF
TAF
KSGF 301720Z 3018/3118 21012G18KT P6SM SCT100 BKN200
     FM301900 28015G23KT P6SM SCT200
     FM302300 33010KT P6SM SKC WS019/35035KT
     FM311000 34010KT P6SM BKN035 WS019/35035KT
     FM311400 35015G25KT P6SM BKN040 OVC250=



000
FTUS43 KSGF 301700
TAFJLN
TAF
KJLN 301720Z 3018/3118 26015G25KT P6SM SCT200
     FM302330 31010KT P6SM SKC WS010/01035KT
     FM311000 35010KT P6SM SCT040 WS019/35035KT
     FM311400 01015G22KT P6SM SCT050=



000
FTUS43 KSGF 301100 CCA
TAFJLN
TAF COR
KJLN 301128Z 3012/3112 17005KT P6SM SKC WS015/23035KT
     FM301500 22012G18KT P6SM SCT100 BKN200
     FM301800 28015G25KT P6SM SCT200
     FM302330 34010KT P6SM SKC WS010/01035KT
     FM311000 35010KT P6SM SCT040 WS019/35035KT=



000
FTUS43 KSGF 301100 CCA
TAFSGF
TAF COR
KSGF 301127Z 3012/3112 16005KT P6SM SKC
     FM301500 21012G18KT P6SM SCT100 BKN200
     FM301900 28015G23KT P6SM SCT200
     FM302330 33010KT P6SM SKC WS019/35035KT
     FM311000 34010KT P6SM SCT040 WS019/35035KT=



000
FTUS43 KSGF 301100
TAFJLN
TAF
KJLN 301120Z 3012/3112 17005KT P6SM SKC WS015/23035KT
     FM301500 22012G18KT P6SM SCT100 BKN200
     FM301800 28015G25KT P6SM SCT200
     FM302330 34010KT P6SM SKC WS010/01035KT=



000
FTUS43 KSGF 301100
TAFSGF
TAF
KSGF 301120Z 3012/3112 16005KT P6SM SKC
     FM301500 21012G18KT P6SM SCT100 BKN200
     FM301900 28015G23KT P6SM SCT200
     FM302330 33010KT P6SM SKC WS019/35035KT=



000
FTUS43 KSGF 300500
TAFSGF
TAF
KSGF 300520Z 3006/3106 16005KT P6SM SKC
     FM301500 21012G18KT P6SM SCT100 BKN200
     FM301900 28012G22KT P6SM SCT200
     FM302300 33007KT P6SM SKC=



000
FTUS43 KSGF 300500
TAFJLN
TAF
KJLN 300520Z 3006/3106 17005KT P6SM SKC
     FM301500 22012G18KT P6SM SCT100 BKN200
     FM301800 28012G22KT P6SM SCT200
     FM302300 34007KT P6SM SKC=



000
FTUS43 KSGF 292300
TAFSGF
TAF
KSGF 292320Z 3000/3024 VRB03KT P6SM SKC
     FM300600 16005KT P6SM SKC
     FM301500 21012G18KT P6SM SCT100 BKN200
     FM301900 28012G22KT P6SM BKN100=



000
FTUS43 KSGF 292300
TAFJLN
TAF
KJLN 292320Z 3000/3024 VRB03KT P6SM SKC
     FM300600 17004KT P6SM SCT250
     FM301500 12012G18KT P6SM SCT100 BKN200
     FM301800 28012G22KT P6SM BKN100=



000
FTUS43 KSGF 291700
TAFSGF
TAF
KSGF 291720Z 2918/3018 VRB03KT P6SM SKC
     FM300600 16004KT P6SM SCT250
     FM301500 18010KT P6SM BKN100=



000
FTUS43 KSGF 291700
TAFJLN
TAF
KJLN 291720Z 2918/3018 VRB03KT P6SM SKC
     FM300600 17004KT P6SM SCT250
     FM301500 19010KT P6SM BKN100=



000
FTUS43 KSGF 291100
TAFJLN
TAF
KJLN 291135Z 2912/3012 VRB03KT P6SM SKC
     FM291600 VRB06KT P6SM SKC=



000
FTUS43 KSGF 291100
TAFSGF
TAF
KSGF 291135Z 2912/3012 VRB03KT P6SM SKC
     FM291600 34008KT P6SM SKC
     FM292300 VRB03KT P6SM SKC=



000
FTUS43 KSGF 290500
TAFJLN
TAF
KJLN 290520Z 2906/3006 VRB03KT P6SM SKC
     FM291600 VRB06KT P6SM SKC=



000
FTUS43 KSGF 290500
TAFSGF
TAF
KSGF 290520Z 2906/3006 VRB03KT P6SM SKC
     FM291600 34008KT P6SM SKC
     FM292300 VRB03KT P6SM SKC=



000
FTUS43 KSGF 282300
TAFSGF
TAF
KSGF 282320Z 2900/2924 33005KT P6SM SCT250
     FM290200 VRB05KT P6SM SKC
     FM291600 32005KT P6SM SKC
     FM292200 VRB05KT P6SM SKC=



000
FTUS43 KSGF 282300
TAFJLN
TAF
KJLN 282320Z 2900/2924 35005KT P6SM SCT250
     FM290200 VRB05KT P6SM SKC
     FM291600 15005KT P6SM SKC=



000
FTUS43 KSGF 282000 AAA
TAFJLN
TAF AMD
KJLN 282024Z 2820/2918 36007KT P6SM SKC
     FM282100 01005KT P6SM SCT250
     FM282300 VRB04KT P6SM SCT250
     FM290300 VRB05KT P6SM SKC=



000
FTUS43 KSGF 282000 AAA
TAFSGF
TAF AMD
KSGF 282023Z 2820/2918 33009KT P6SM SKC
     FM282300 33005KT P6SM SCT250
     FM290200 VRB05KT P6SM SKC
     FM291600 32005KT P6SM SKC=



000
FTUS43 KSGF 281700
TAFSGF
TAF
KSGF 281720Z 2818/2918 35009KT P6SM SKC
     FM282300 34005KT P6SM SCT250
     FM290200 VRB05KT P6SM SKC
     FM291600 32005KT P6SM SKC=



000
FTUS43 KSGF 281700
TAFJLN
TAF
KJLN 281720Z 2818/2918 02007KT P6SM SKC
     FM282100 01005KT P6SM SCT250
     FM282300 VRB04KT P6SM SCT250
     FM290300 VRB05KT P6SM SKC=



000
FTUS43 KSGF 281100 CCA
TAFSGF
TAF COR
KSGF 281157Z 2812/2912 36009KT P6SM SKC
     FM282300 34004KT P6SM SCT200=



000
FTUS43 KSGF 281100
TAFSGF
TAF
KSGF 281120Z 2812/2912 36007KT P6SM BKN070
     FM281300 36009KT P6SM SKC
     FM282300 34004KT P6SM SCT200=



000
FTUS43 KSGF 281100
TAFJLN
TAF
KJLN 281120Z 2812/2912 36007KT P6SM FEW060
     FM281400 01007KT P6SM SKC
     FM282100 36005KT P6SM SCT200
     FM290100 VRB03KT P6SM SKC=



000
FTUS43 KSGF 281000 AAB
TAFJLN
TAF AMD
KJLN 281042Z 2811/2906 36007KT P6SM FEW060
     FM281400 01007KT P6SM SKC
     FM290000 VRB03KT P6SM SKC=



000
FTUS43 KSGF 281000 AAB
TAFSGF
TAF AMD
KSGF 281042Z 2811/2906 36007KT P6SM BKN070
     FM281500 36009KT P6SM SKC
     FM290000 34004KT P6SM SKC=



000
FTUS43 KSGF 280800 AAA
TAFSGF
TAF AMD
KSGF 280804Z 2808/2906 27009KT P6SM VCSH BKN035
     FM280900 32009G19KT P6SM VCSH OVC035
     FM281200 36007KT P6SM BKN070
     FM281500 36009KT P6SM SKC
     FM290000 34004KT P6SM SKC=



000
FTUS43 KSGF 280600 AAA
TAFJLN
TAF AMD
KJLN 280657Z 2807/2906 36007KT P6SM VCSH BKN050
     FM280800 01009G18KT P6SM VCSH BKN050 OVC100
     FM281100 01007KT P6SM BKN070
     FM281400 01007KT P6SM SKC
     FM290000 VRB03KT P6SM SKC=



000
FTUS43 KSGF 280600 AAA
TAFSGF
TAF AMD
KSGF 280618Z 2806/2906 27009KT P6SM VCSH BKN035
      TEMPO 2806/2809 5SM -TSRA BR SCT009 BKN030CB
     FM280900 32009G19KT P6SM VCSH OVC035
     FM281200 36007KT P6SM BKN070
     FM281500 36009KT P6SM SKC
     FM290000 34004KT P6SM SKC=



    US Dept of Commerce
    National Oceanic and Atmospheric Administration
    National Weather Service
    1325 East West Highway
    Silver Spring, MD 20910
    Page Author: NWS Internet Services Team
Disclaimer
Information Quality
Credits
Glossary
Privacy Policy
Freedom of Information Act (FOIA)
About Us
Career Opportunities